Cedar City Regional Airport
KCDC : now visible

Airfield :











YOU CAN JOIN US ON...

 
LOGIN :

Register | Disclaimer

   EN    FR    IT 

 









Legend :    VFR   Marginal VFR   IFR   Intensive IFR   Very Intensive IFR
Visi :
Ceiling :
>= 8 km
>= 3000ft
5 to 8 km
1000 to 3000 ft
1500m to 5 km
500 to 1000 ft
800 to 1500m
200 to 500 ft
< 800m
< 200 ft
Symbols :   Thunderstorms  Fog  Heavy snow  Heavy precipitations  Wind > 20 kt






- Airport Elevation : 5622 ft
- IATA code : CDC


KCDC - Cedar City Regional

CURRENT METAR :
  • 090926Z AUTO 05005KT 2 1/2SM BR BKN001 M03/M03 A3001 RMK AO2 I1000 T10281028

EXPIRED METARs :
  • 090913Z AUTO 00000KT 1 1/2SM BR BKN001 M04/M04 A3001 RMK AO2 VIS 1/2V3 I1000 T10391039
  • 090904Z AUTO 00000KT 2SM BR SCT001 M03/M03 A3000 RMK AO2 T10331033
  • 090842Z AUTO 20003KT 1/2SM FZFG VV001 M02/M03 A2999 RMK AO2 I1000 T10221028
  • 090833Z AUTO 00000KT 1 3/4SM BR CLR M03/M03 A2999 RMK AO2 T10281028
  • 090810Z AUTO 01003KT 1 1/4SM BR FEW001 M03/M03 A3000 RMK AO2 T10281028
  • 090806Z AUTO 01003KT 3/4SM BR VV001 M03/M03 A3000 RMK AO2 T10281028
  • 090653Z AUTO 05004KT 10SM CLR M01/M01 A3001 RMK AO2 SLP152 I1000 T10111011 400891017

TAF KCDC
Valid from the 09 at 09:00 until the 10 at 06:00 UTC


090830Z 0909/1006 VRB04KT 1SM BR VV001
FM091500 VRB04KT P6SM SCT080 SCT120
FM091800 36007KT P6SM SCT120
FM100300 VRB04KT P6SM SKC



MET'MAP, your aeronautical weather chart ! - Copyright ORBIFLY December 2007 - Disclaimer

ORBIFLY MET'MAP TEAM :

Programming & Development : Alexandra Zaïnal
Concept & original design : Baudouin d'Aumeries
Assistance for programming : Marc-Olivier Méhu
Technical & hardware support : Manuel Goepfert

Contact : metmap@orbifly.com




SOURCES & CREDITS :

   NOAA       Earth
Advisory